createdAt,value
2018-12-12T11:10:05.047Z,37.84
2018-12-12T11:11:03.995Z,38.24
2018-12-12T11:12:04.314Z,37.62
2018-12-12T11:13:04.649Z,37.42
2018-12-12T11:14:04.250Z,37.30
2018-12-12T11:15:03.892Z,37.30
2018-12-12T11:16:05.211Z,37.10
2018-12-12T11:17:03.032Z,36.90
2018-12-12T11:18:03.911Z,37.28
2018-12-12T11:19:02.791Z,37.38
2018-12-12T11:20:03.047Z,37.48
2018-12-12T11:21:02.274Z,37.28
2018-12-12T11:22:02.052Z,37.79
2018-12-12T11:23:02.335Z,36.88
2018-12-12T11:24:01.637Z,36.98
2018-12-12T11:25:01.625Z,36.48
2018-12-12T11:26:01.149Z,37.07
2018-12-12T11:27:00.953Z,36.46
2018-12-12T11:28:01.307Z,36.87
2018-12-12T11:29:00.511Z,36.36
2018-12-12T11:30:00.231Z,37.16
2018-12-12T11:30:59.932Z,36.57
2018-12-12T11:32:00.814Z,35.76
2018-12-12T11:33:00.070Z,35.96
2018-12-12T11:33:59.254Z,36.36
2018-12-12T11:34:58.194Z,35.55
2018-12-12T11:35:58.432Z,35.85
2018-12-12T11:36:58.625Z,36.55
2018-12-12T11:37:58.174Z,35.64
2018-12-12T11:38:58.236Z,35.55
2018-12-12T11:39:57.892Z,35.75
2018-12-12T11:40:57.336Z,36.05
2018-12-12T11:41:57.251Z,35.85
2018-12-12T11:42:56.773Z,36.44
2018-12-12T11:43:56.449Z,36.85
2018-12-12T11:44:55.890Z,36.75
2018-12-12T11:45:56.231Z,35.44
2018-12-12T11:46:55.633Z,35.85
2018-12-12T11:47:55.151Z,36.75
2018-12-12T11:48:55.371Z,36.44
2018-12-12T11:49:54.632Z,35.64
2018-12-12T11:50:55.269Z,35.75
2018-12-12T11:51:54.171Z,36.03
2018-12-12T11:52:53.549Z,35.94
2018-12-12T11:53:53.676Z,35.63
2018-12-12T11:54:55.230Z,35.64
2018-12-12T11:55:52.129Z,35.94
2018-12-12T11:56:52.609Z,36.05
2018-12-12T11:57:52.198Z,36.05
2018-12-12T11:58:51.449Z,36.05
2018-12-12T11:59:51.957Z,35.55
2018-12-12T12:00:50.679Z,35.63
2018-12-12T12:01:51.414Z,35.63
2018-12-12T12:02:51.589Z,35.93
2018-12-12T12:03:56.617Z,35.53
2018-12-12T12:04:51.593Z,35.93
2018-12-12T12:05:49.811Z,35.73
2018-12-12T12:06:49.540Z,35.53
2018-12-12T12:07:49.434Z,35.63
2018-12-12T12:08:49.186Z,35.83
2018-12-12T12:09:49.119Z,35.23
2018-12-12T12:10:48.014Z,35.13
2018-12-12T12:11:48.614Z,35.13
2018-12-12T12:12:48.634Z,34.93
2018-12-12T12:13:47.795Z,35.35
2018-12-12T12:14:47.076Z,35.35
2018-12-12T12:15:47.169Z,35.64
2018-12-12T12:16:46.688Z,35.75
2018-12-12T12:17:46.796Z,35.44
2018-12-12T12:18:46.487Z,36.05
2018-12-12T12:19:45.556Z,35.75
2018-12-12T12:20:45.230Z,36.25
2018-12-12T12:21:45.273Z,35.35
2018-12-12T12:22:45.837Z,36.66
2018-12-12T12:23:44.793Z,36.57
2018-12-12T12:24:44.437Z,36.16
2018-12-12T12:25:43.870Z,36.26
2018-12-12T12:26:43.449Z,36.66
2018-12-12T12:27:43.029Z,36.76
2018-12-12T12:28:43.372Z,36.76
2018-12-12T12:29:42.513Z,36.87
2018-12-12T12:30:42.114Z,36.96
2018-12-12T12:31:42.216Z,36.87
2018-12-12T12:32:41.511Z,36.87
2018-12-12T12:33:41.398Z,36.46
2018-12-12T12:34:40.992Z,37.27
2018-12-12T12:35:40.599Z,36.96
2018-12-12T12:36:41.252Z,37.07
2018-12-12T12:37:40.094Z,36.66
2018-12-12T12:38:39.999Z,37.16
2018-12-12T12:39:39.875Z,36.57
2018-12-12T12:40:39.438Z,37.07
2018-12-12T12:41:39.055Z,36.66
2018-12-12T12:42:39.536Z,36.57
2018-12-12T12:43:38.767Z,36.96
2018-12-12T12:44:39.126Z,36.76
2018-12-12T12:47:43.482Z,36.76
